Time;durP1;ratioP1;P1;durP2;ratioP2;P2;SDS_P1;SDS_P2;PMS_P1;PMS_P2;Temp;Humidity;BMP_temperature;BMP_pressure;BME280_temperature;BME280_humidity;BME280_pressure;Samples;Min_cycle;Max_cycle;Signal;HPM_P1;HPM_P2
2022/12/29 00:01:23;;;;;;;4.10;2.33;;;7.00;99.90;;;;;;5101455;28;20193;-76
2022/12/29 00:03:49;;;;;;;3.03;2.27;;;7.00;99.90;;;;;;5101289;28;20204;-76
2022/12/29 00:06:17;;;;;;;5.00;2.43;;;7.10;99.90;;;;;;5101952;28;20196;-76
2022/12/29 00:08:44;;;;;;;3.20;2.30;;;7.00;99.90;;;;;;5102144;28;20203;-76
2022/12/29 00:11:13;;;;;;;3.80;2.60;;;7.10;99.90;;;;;;5102612;28;20201;-75
2022/12/29 00:16:24;;;;;;;4.43;2.40;;;7.10;99.90;;;;;;5101102;28;20356;-75
2022/12/29 00:18:51;;;;;;;3.00;2.47;;;7.20;99.90;;;;;;5099116;28;20196;-75
2022/12/29 00:35:13;;;;;;;3.60;2.10;;;7.40;99.90;;;;;;5098444;28;20196;-76
2022/12/29 00:45:56;;;;;;;4.10;2.50;;;7.70;99.90;;;;;;5100297;28;20195;-75
2022/12/29 00:51:04;;;;;;;3.27;2.20;;;7.70;99.90;;;;;;5094505;28;20216;-75
2022/12/29 00:53:32;;;;;;;3.77;2.40;;;7.80;99.90;;;;;;5095518;28;20223;-76
2022/12/29 00:55:59;;;;;;;3.73;2.30;;;7.80;99.90;;;;;;5098091;28;20192;-75
2022/12/29 00:58:28;;;;;;;2.87;2.13;;;7.90;99.90;;;;;;5095927;28;20723;-76
2022/12/29 01:01:02;;;;;;;2.60;1.93;;;7.90;99.90;;;;;;5095849;28;20724;-76
2022/12/29 01:03:28;;;;;;;3.40;2.27;;;7.90;99.90;;;;;;5095032;28;20197;-76
2022/12/29 01:05:55;;;;;;;2.73;2.00;;;7.80;99.90;;;;;;5094929;28;20601;-77
2022/12/29 01:08:21;;;;;;;5.07;2.00;;;7.70;99.90;;;;;;5094823;28;20192;-76
2022/12/29 01:10:57;;;;;;;2.60;2.07;;;7.70;99.90;;;;;;5094800;28;20196;-76
2022/12/29 01:13:24;;;;;;;2.30;2.10;;;7.70;99.90;;;;;;5094922;28;20230;-76
2022/12/29 01:15:51;;;;;;;3.00;2.27;;;7.70;99.90;;;;;;5094916;28;20529;-76
2022/12/29 01:18:18;;;;;;;2.30;2.10;;;7.70;99.90;;;;;;5094838;28;20200;-76
2022/12/29 01:20:44;;;;;;;3.47;2.13;;;7.70;99.90;;;;;;5094734;28;20196;-76
2022/12/29 01:23:11;;;;;;;3.07;2.30;;;7.70;99.90;;;;;;5094447;28;20598;-76
2022/12/29 01:25:37;;;;;;;2.90;2.00;;;7.60;99.90;;;;;;5094665;28;20223;-78
2022/12/29 01:28:06;;;;;;;3.73;2.30;;;7.70;99.90;;;;;;5093284;28;20709;-76
2022/12/29 01:30:33;;;;;;;3.47;1.97;;;7.70;99.90;;;;;;5094351;28;20655;-77
2022/12/29 01:33:00;;;;;;;4.03;2.37;;;7.80;99.90;;;;;;5094263;28;20219;-78
2022/12/29 01:35:26;;;;;;;3.27;2.20;;;7.70;99.90;;;;;;5094344;28;20200;-78
2022/12/29 01:37:53;;;;;;;2.87;2.23;;;7.70;99.90;;;;;;5094171;28;20196;-77
2022/12/29 01:40:20;;;;;;;2.10;1.80;;;7.70;99.90;;;;;;5094069;28;20212;-77
2022/12/29 01:42:46;;;;;;;3.13;2.10;;;7.60;99.90;;;;;;5094242;28;20202;-76
2022/12/29 01:45:15;;;;;;;3.63;2.30;;;7.50;99.90;;;;;;5094170;28;20256;-77
2022/12/29 01:47:45;;;;;;;2.67;2.13;;;7.40;99.90;;;;;;5094306;28;20266;-77
2022/12/29 01:50:16;;;;;;;2.40;2.10;;;7.40;99.90;;;;;;5093907;28;20200;-77
2022/12/29 01:52:50;;;;;;;4.07;2.23;;;7.40;99.90;;;;;;5094442;28;20201;-77
2022/12/29 01:55:17;;;;;;;3.57;2.10;;;7.40;99.90;;;;;;5094093;28;20607;-76
2022/12/29 01:57:47;;;;;;;2.77;2.37;;;7.40;99.90;;;;;;5093993;28;20203;-77
2022/12/29 02:00:16;;;;;;;3.47;2.33;;;7.40;99.90;;;;;;5093971;28;20660;-77
2022/12/29 02:02:45;;;;;;;2.57;2.17;;;7.40;99.90;;;;;;5093746;28;20662;-77
2022/12/29 02:05:18;;;;;;;5.43;2.30;;;7.40;99.90;;;;;;5093781;28;20192;-77
2022/12/29 02:07:47;;;;;;;2.80;2.20;;;7.30;99.90;;;;;;5093891;28;20196;-77
2022/12/29 02:10:14;;;;;;;3.90;2.40;;;7.30;99.90;;;;;;5093692;28;20267;-77
2022/12/29 02:12:41;;;;;;;2.80;2.40;;;7.20;99.90;;;;;;5093656;28;20226;-77
2022/12/29 02:15:09;;;;;;;4.57;2.53;;;7.20;99.90;;;;;;5093523;28;20253;-77
2022/12/29 02:17:50;;;;;;;5.57;2.57;;;7.20;99.90;;;;;;5093746;28;20253;-76
2022/12/29 02:20:49;;;;;;;3.40;2.60;;;7.20;99.90;;;;;;5093694;28;20280;-76
2022/12/29 02:23:38;;;;;;;5.20;2.10;;;7.20;99.90;;;;;;5076297;28;20200;-77
2022/12/29 02:26:19;;;;;;;2.47;2.17;;;7.20;99.90;;;;;;5093428;28;20643;-77
2022/12/29 02:29:28;;;;;;;5.67;2.33;;;7.20;99.90;;;;;;5093515;28;20212;-77
2022/12/29 02:32:00;;;;;;;3.20;2.23;;;7.30;99.90;;;;;;5093278;28;20196;-77
2022/12/29 02:34:39;;;;;;;4.27;2.20;;;7.20;99.90;;;;;;5093474;28;20220;-77
2022/12/29 02:37:17;;;;;;;2.80;2.00;;;7.30;99.90;;;;;;5093456;28;20602;-77
2022/12/29 02:39:51;;;;;;;3.63;2.30;;;7.30;99.90;;;;;;5093049;28;20202;-77
2022/12/29 02:42:34;;;;;;;2.97;2.00;;;7.20;99.90;;;;;;5093228;28;20192;-77
2022/12/29 02:45:05;;;;;;;4.23;2.30;;;7.10;99.90;;;;;;5093325;28;20222;-77
2022/12/29 02:47:38;;;;;;;2.50;2.00;;;7.20;99.90;;;;;;5093084;28;20283;-77
2022/12/29 02:50:12;;;;;;;2.63;2.20;;;7.20;99.90;;;;;;5093428;28;20197;-77
2022/12/29 02:52:47;;;;;;;2.07;1.80;;;7.20;99.90;;;;;;5093007;28;20664;-76
2022/12/29 02:55:13;;;;;;;3.80;2.10;;;7.20;99.90;;;;;;5093297;28;20223;-77
2022/12/29 02:57:39;;;;;;;2.90;2.00;;;7.20;99.90;;;;;;5093342;28;20710;-77
2022/12/29 03:00:10;;;;;;;3.10;2.33;;;7.30;99.90;;;;;;5099606;28;20198;-77
2022/12/29 03:03:06;;;;;;;3.07;2.10;;;7.30;99.90;;;;;;5093054;28;20659;-77
2022/12/29 03:06:02;;;;;;;2.20;2.00;;;7.20;99.90;;;;;;5092926;28;20196;-77
2022/12/29 03:08:35;;;;;;;3.93;2.00;;;7.50;99.90;;;;;;5092512;28;20197;-77
2022/12/29 03:11:04;;;;;;;2.60;2.10;;;7.50;99.90;;;;;;5093133;28;20196;-77
2022/12/29 03:16:29;;;;;;;3.30;2.03;;;7.60;99.90;;;;;;5093004;28;20203;-77
2022/12/29 03:19:03;;;;;;;4.00;2.33;;;7.60;99.90;;;;;;5092949;28;20197;-77
2022/12/29 03:24:20;;;;;;;4.90;2.23;;;7.80;99.90;;;;;;5092943;28;20191;-77
2022/12/29 03:26:48;;;;;;;2.47;2.03;;;7.90;99.90;;;;;;5092710;28;20556;-77
2022/12/29 03:29:17;;;;;;;2.23;1.97;;;7.80;99.90;;;;;;5092800;28;20529;-77
2022/12/29 03:31:45;;;;;;;2.63;2.03;;;7.90;99.90;;;;;;5092720;28;20227;-77
2022/12/29 03:34:15;;;;;;;2.90;2.10;;;7.90;99.90;;;;;;5092611;28;20224;-77
2022/12/29 03:36:49;;;;;;;5.40;2.23;;;7.90;99.90;;;;;;5092938;28;20204;-77
2022/12/29 03:39:17;;;;;;;3.13;2.13;;;7.90;99.90;;;;;;5092710;28;20537;-77
2022/12/29 03:41:46;;;;;;;2.63;2.17;;;7.80;99.90;;;;;;5092737;28;20196;-77
2022/12/29 03:44:13;;;;;;;6.20;2.23;;;7.80;99.90;;;;;;5092726;28;20613;-77
2022/12/29 03:46:40;;;;;;;2.80;2.20;;;7.80;99.90;;;;;;5092452;28;20273;-77
2022/12/29 03:49:07;;;;;;;2.30;2.10;;;7.90;99.90;;;;;;5092485;28;20258;-77
2022/12/29 03:51:35;;;;;;;5.10;2.10;;;7.90;99.90;;;;;;5095812;28;20250;-77
2022/12/29 03:54:01;;;;;;;3.67;2.00;;;7.90;99.90;;;;;;5096257;28;20242;-76
2022/12/29 03:56:28;;;;;;;4.00;2.40;;;7.90;99.90;;;;;;5096382;28;20196;-77
2022/12/29 03:58:54;;;;;;;2.70;2.20;;;7.80;99.90;;;;;;5096306;28;20193;-77
2022/12/29 04:01:21;;;;;;;3.00;2.10;;;7.70;99.90;;;;;;5095988;28;20196;-77
2022/12/29 04:03:48;;;;;;;2.43;1.90;;;7.70;99.90;;;;;;5096108;28;20201;-77
2022/12/29 04:06:14;;;;;;;5.57;2.10;;;7.70;99.90;;;;;;5096294;28;20250;-77
2022/12/29 04:08:42;;;;;;;4.47;2.27;;;7.70;99.90;;;;;;5096137;28;20196;-77
2022/12/29 04:11:09;;;;;;;2.07;1.87;;;7.70;99.90;;;;;;5096027;28;20201;-77
2022/12/29 04:13:35;;;;;;;3.93;2.03;;;7.70;99.90;;;;;;5095814;28;20645;-77
2022/12/29 04:16:02;;;;;;;3.13;1.90;;;7.70;99.90;;;;;;5095906;28;20196;-77
2022/12/29 04:18:28;;;;;;;3.00;2.10;;;7.80;99.90;;;;;;5096043;28;20250;-77
2022/12/29 04:21:00;;;;;;;3.37;1.90;;;7.80;99.90;;;;;;5095939;28;20209;-77
2022/12/29 04:23:27;;;;;;;3.00;1.80;;;7.80;99.90;;;;;;5095895;28;20607;-77
2022/12/29 04:25:55;;;;;;;2.67;2.07;;;7.80;99.90;;;;;;5095816;28;20203;-77
2022/12/29 04:28:21;;;;;;;3.07;2.10;;;7.90;99.90;;;;;;5095681;28;20251;-77
2022/12/29 04:30:48;;;;;;;2.70;2.00;;;8.00;99.90;;;;;;5095522;28;20196;-77
2022/12/29 04:33:15;;;;;;;3.10;2.17;;;8.10;99.90;;;;;;5095785;28;20193;-77
2022/12/29 04:35:43;;;;;;;5.30;2.00;;;8.30;99.90;;;;;;5099153;28;20220;-76
2022/12/29 04:38:09;;;;;;;4.23;2.00;;;8.30;99.90;;;;;;5095644;28;20199;-77
2022/12/29 04:40:36;;;;;;;2.97;2.00;;;8.30;99.90;;;;;;5095472;28;20607;-77
2022/12/29 04:43:04;;;;;;;4.33;1.93;;;8.30;99.90;;;;;;5095349;28;20250;-77
2022/12/29 04:45:30;;;;;;;2.93;2.00;;;8.30;99.90;;;;;;5096539;28;20211;-77
2022/12/29 04:47:57;;;;;;;3.00;1.97;;;8.40;99.90;;;;;;5101012;28;20225;-77
2022/12/29 04:50:24;;;;;;;2.60;2.00;;;8.30;99.90;;;;;;5095961;28;20564;-77
2022/12/29 04:52:50;;;;;;;2.63;1.73;;;8.30;99.90;;;;;;5095690;28;20252;-77
2022/12/29 04:55:17;;;;;;;3.07;1.80;;;8.20;99.90;;;;;;5095118;28;20281;-77
2022/12/29 04:57:44;;;;;;;3.20;1.90;;;8.20;99.90;;;;;;5094994;28;20600;-77
2022/12/29 05:00:13;;;;;;;4.10;2.10;;;8.20;99.90;;;;;;5095231;28;20196;-77
2022/12/29 05:02:40;;;;;;;2.97;1.80;;;8.30;99.90;;;;;;5095962;28;20252;-77
2022/12/29 05:05:07;;;;;;;3.50;1.80;;;8.30;99.90;;;;;;5095468;28;20199;-76
2022/12/29 05:07:34;;;;;;;3.27;2.00;;;8.30;99.90;;;;;;5095208;28;20252;-78
2022/12/29 05:10:01;;;;;;;3.33;2.00;;;8.30;99.90;;;;;;5095251;28;20717;-77
2022/12/29 05:12:31;;;;;;;3.80;2.30;;;8.30;99.90;;;;;;5095032;28;20246;-77
2022/12/29 05:14:57;;;;;;;3.67;2.10;;;8.30;99.90;;;;;;5095154;28;20219;-77
2022/12/29 05:17:25;;;;;;;3.77;2.13;;;8.30;99.90;;;;;;5094871;28;20254;-76
2022/12/29 05:19:52;;;;;;;3.57;2.03;;;8.20;99.90;;;;;;5094923;28;20257;-77
2022/12/29 05:22:19;;;;;;;4.23;1.83;;;8.10;99.90;;;;;;5095845;28;20197;-77
2022/12/29 05:24:45;;;;;;;2.17;1.77;;;8.00;99.90;;;;;;5094638;28;20199;-77
2022/12/29 05:27:12;;;;;;;2.53;1.90;;;7.90;99.90;;;;;;5098738;28;20242;-77
2022/12/29 05:29:38;;;;;;;4.30;2.03;;;7.90;99.90;;;;;;5095349;28;20656;-77
2022/12/29 05:32:05;;;;;;;3.17;2.00;;;7.90;99.90;;;;;;5094920;28;20192;-77
2022/12/29 05:34:33;;;;;;;4.13;2.17;;;7.70;99.90;;;;;;5094253;28;20220;-77
2022/12/29 05:37:01;;;;;;;4.23;2.13;;;7.60;99.90;;;;;;5094362;28;20250;-77
2022/12/29 05:39:27;;;;;;;3.17;1.80;;;7.50;99.90;;;;;;5094274;28;20229;-77
2022/12/29 05:41:54;;;;;;;8.27;2.10;;;7.30;99.90;;;;;;5094393;28;20200;-77
2022/12/29 05:44:21;;;;;;;3.47;2.17;;;7.30;99.90;;;;;;5094367;28;20224;-77
2022/12/29 05:46:47;;;;;;;3.53;2.07;;;7.40;99.90;;;;;;5094095;28;20227;-77
2022/12/29 05:49:14;;;;;;;3.03;1.87;;;7.60;99.90;;;;;;5094212;28;20196;-77
2022/12/29 05:51:42;;;;;;;3.40;2.07;;;7.40;99.90;;;;;;5094041;28;20204;-77
2022/12/29 05:54:09;;;;;;;4.07;2.00;;;7.50;99.90;;;;;;5101002;28;20207;-77
2022/12/29 05:56:35;;;;;;;3.07;1.80;;;7.50;99.90;;;;;;5094944;28;20655;-77
2022/12/29 05:59:02;;;;;;;2.03;1.83;;;7.50;99.90;;;;;;5094500;28;20261;-77
2022/12/29 06:01:28;;;;;;;2.77;2.27;;;7.50;99.90;;;;;;5093975;28;20192;-77
2022/12/29 06:03:55;;;;;;;5.27;2.23;;;7.60;99.90;;;;;;5094082;28;20197;-77
2022/12/29 06:06:22;;;;;;;3.77;2.27;;;7.60;99.90;;;;;;5094111;28;20602;-77
2022/12/29 06:08:49;;;;;;;4.00;2.17;;;7.60;99.90;;;;;;5094000;28;20226;-78
2022/12/29 06:11:16;;;;;;;4.57;2.33;;;7.60;99.90;;;;;;5093890;28;20201;-77
2022/12/29 06:13:43;;;;;;;3.87;2.20;;;7.60;99.90;;;;;;5093379;28;20629;-77
2022/12/29 06:16:09;;;;;;;3.30;2.00;;;7.80;99.90;;;;;;5093893;28;20258;-78
2022/12/29 06:18:36;;;;;;;3.07;2.20;;;7.80;99.90;;;;;;5093729;28;20196;-77
2022/12/29 06:21:04;;;;;;;3.30;2.07;;;7.80;99.90;;;;;;5093746;28;20249;-77
2022/12/29 06:23:31;;;;;;;3.00;1.90;;;7.90;99.90;;;;;;5095081;28;20192;-78
2022/12/29 06:25:59;;;;;;;3.43;2.00;;;7.90;99.90;;;;;;5100696;28;20195;-77
2022/12/29 06:28:25;;;;;;;5.80;2.10;;;7.90;99.90;;;;;;5097639;28;20192;-78
2022/12/29 06:30:52;;;;;;;3.00;2.40;;;7.90;99.90;;;;;;5099087;28;20222;-77
2022/12/29 06:33:18;;;;;;;2.87;2.13;;;8.00;99.90;;;;;;5097679;28;20199;-77
2022/12/29 06:35:46;;;;;;;2.83;2.10;;;8.00;99.90;;;;;;5099992;28;20226;-78
2022/12/29 06:38:13;;;;;;;3.77;2.07;;;7.90;99.90;;;;;;5101839;28;20196;-77
2022/12/29 06:40:41;;;;;;;3.23;2.00;;;8.00;99.90;;;;;;5102415;28;20197;-77
2022/12/29 06:43:08;;;;;;;2.97;1.90;;;8.00;99.90;;;;;;5100646;28;20648;-78
2022/12/29 06:45:35;;;;;;;2.20;1.90;;;7.90;99.90;;;;;;5093765;28;20205;-76
2022/12/29 06:48:02;;;;;;;4.87;2.17;;;7.80;99.90;;;;;;5095313;28;20696;-77
2022/12/29 06:50:28;;;;;;;2.90;2.10;;;7.90;99.90;;;;;;5100718;28;20594;-77
2022/12/29 06:52:55;;;;;;;2.70;1.93;;;7.90;99.90;;;;;;5100536;28;20199;-78
2022/12/29 06:55:22;;;;;;;2.17;1.90;;;8.00;99.90;;;;;;5101853;28;20228;-77
2022/12/29 06:57:48;;;;;;;4.30;2.27;;;8.00;99.90;;;;;;5103495;28;20207;-78
2022/12/29 07:00:17;;;;;;;3.60;2.10;;;7.90;99.90;;;;;;5101215;28;20606;-78
2022/12/29 07:02:44;;;;;;;4.27;2.00;;;7.90;99.90;;;;;;5103588;28;20200;-79
2022/12/29 07:05:10;;;;;;;2.50;2.00;;;7.80;99.90;;;;;;5104337;28;20225;-78
2022/12/29 07:07:37;;;;;;;3.00;2.27;;;7.80;99.90;;;;;;5105261;28;20193;-77
2022/12/29 07:10:04;;;;;;;3.03;2.10;;;7.70;99.90;;;;;;5105664;28;20201;-77
2022/12/29 07:12:31;;;;;;;2.70;2.20;;;7.70;99.90;;;;;;5096325;28;20192;-77
2022/12/29 07:14:57;;;;;;;5.27;2.30;;;7.70;99.90;;;;;;5093040;28;20212;-77
2022/12/29 07:17:25;;;;;;;2.70;2.10;;;7.70;99.90;;;;;;5093490;28;20590;-77
2022/12/29 07:19:52;;;;;;;4.30;2.23;;;7.70;99.90;;;;;;5095338;28;20196;-77
2022/12/29 07:22:18;;;;;;;3.90;2.50;;;7.70;99.90;;;;;;5093113;28;20192;-78
2022/12/29 07:24:45;;;;;;;3.27;2.20;;;7.70;99.90;;;;;;5095019;28;20245;-77
2022/12/29 07:27:11;;;;;;;4.10;2.10;;;7.70;99.90;;;;;;5097033;28;20201;-77
2022/12/29 07:29:39;;;;;;;3.13;2.17;;;7.70;99.90;;;;;;5096675;28;20196;-77
2022/12/29 07:32:05;;;;;;;2.37;1.93;;;7.70;99.90;;;;;;5096659;28;20203;-77
2022/12/29 07:34:33;;;;;;;4.23;2.23;;;7.70;99.90;;;;;;5096730;28;20249;-77
2022/12/29 07:37:00;;;;;;;2.77;2.13;;;7.60;99.90;;;;;;5097188;28;20254;-77
2022/12/29 07:39:26;;;;;;;3.33;2.43;;;7.60;99.90;;;;;;5096591;28;20241;-77
2022/12/29 07:41:53;;;;;;;3.83;2.20;;;7.50;99.90;;;;;;5096574;28;20575;-77
2022/12/29 07:44:20;;;;;;;2.40;2.17;;;7.50;99.90;;;;;;5096726;28;20251;-76
2022/12/29 07:46:46;;;;;;;2.93;2.37;;;7.40;99.90;;;;;;5096523;28;20228;-77
2022/12/29 07:49:13;;;;;;;3.03;2.23;;;7.40;99.90;;;;;;5097675;28;20249;-77
2022/12/29 07:51:41;;;;;;;2.87;2.40;;;7.40;99.90;;;;;;5096291;28;20215;-77
2022/12/29 07:54:07;;;;;;;4.40;2.30;;;7.40;99.90;;;;;;5096415;28;20200;-77
2022/12/29 07:56:34;;;;;;;2.77;2.17;;;7.40;99.90;;;;;;5096056;28;20223;-77
2022/12/29 07:59:01;;;;;;;2.83;2.50;;;7.40;99.90;;;;;;5097092;28;20647;-77
2022/12/29 08:01:27;;;;;;;3.23;2.70;;;7.40;99.90;;;;;;5097898;28;20196;-77
2022/12/29 08:03:54;;;;;;;4.27;2.70;;;7.40;99.90;;;;;;5098218;28;20231;-77
2022/12/29 08:06:21;;;;;;;5.57;2.73;;;7.40;99.90;;;;;;5096547;28;20204;-77
2022/12/29 08:08:49;;;;;;;2.97;2.67;;;7.40;99.90;;;;;;5096188;28;20204;-77
2022/12/29 08:11:16;;;;;;;5.23;2.67;;;7.30;99.90;;;;;;5096149;28;20273;-77
2022/12/29 08:13:43;;;;;;;3.23;2.57;;;7.30;99.90;;;;;;5096130;28;20279;-77
2022/12/29 08:16:09;;;;;;;2.77;2.30;;;7.40;99.90;;;;;;5096193;28;20683;-78
2022/12/29 08:18:36;;;;;;;3.47;2.27;;;7.40;99.90;;;;;;5095825;28;20196;-76
2022/12/29 08:21:03;;;;;;;5.13;2.50;;;7.40;99.90;;;;;;5096773;28;20200;-76
2022/12/29 08:23:30;;;;;;;3.43;2.60;;;7.50;99.90;;;;;;5095752;28;20199;-75
2022/12/29 08:26:02;;;;;;;2.40;2.20;;;7.60;99.90;;;;;;5095593;28;20242;-75
2022/12/29 08:28:30;;;;;;;2.63;1.97;;;7.60;99.90;;;;;;5095899;28;20200;-76
2022/12/29 08:30:59;;;;;;;3.77;2.23;;;7.70;99.90;;;;;;5096361;28;20230;-79
2022/12/29 08:33:26;;;;;;;3.03;2.37;;;7.80;99.90;;;;;;5096306;28;20243;-77
2022/12/29 08:35:52;;;;;;;3.77;2.20;;;7.80;99.90;;;;;;5095396;28;20231;-76
2022/12/29 08:38:19;;;;;;;2.83;2.30;;;7.90;99.90;;;;;;5096991;28;20194;-76
2022/12/29 08:40:45;;;;;;;4.87;2.97;;;8.00;99.90;;;;;;5095146;28;20246;-77
2022/12/29 08:43:13;;;;;;;3.17;2.47;;;8.20;99.90;;;;;;5095392;28;20204;-79
2022/12/29 08:45:40;;;;;;;3.17;2.50;;;8.20;99.90;;;;;;5095147;28;20303;-76
2022/12/29 08:48:06;;;;;;;3.93;2.40;;;8.30;99.90;;;;;;5095295;28;20192;-79
2022/12/29 08:50:33;;;;;;;3.10;2.40;;;8.30;99.90;;;;;;5095727;28;20208;-77
2022/12/29 08:53:00;;;;;;;4.70;2.80;;;8.40;99.90;;;;;;5095155;28;20200;-77
2022/12/29 08:55:26;;;;;;;4.67;2.50;;;8.50;99.90;;;;;;5095970;28;20219;-76
2022/12/29 08:57:53;;;;;;;3.43;2.47;;;8.60;99.90;;;;;;5098175;28;20204;-75
2022/12/29 09:00:21;;;;;;;5.80;2.50;;;8.70;99.90;;;;;;5096972;28;20196;-76
2022/12/29 09:02:48;;;;;;;5.70;2.50;;;8.80;99.90;;;;;;5097241;28;20275;-77
2022/12/29 09:05:14;;;;;;;3.93;2.30;;;8.90;99.90;;;;;;5095111;28;20540;-78
2022/12/29 09:07:42;;;;;;;4.27;2.37;;;9.00;99.90;;;;;;5094987;28;20232;-77
2022/12/29 09:10:08;;;;;;;5.80;2.70;;;9.00;99.90;;;;;;5095441;28;20197;-77
2022/12/29 09:12:35;;;;;;;3.90;2.23;;;9.00;99.90;;;;;;5095448;28;20261;-76
2022/12/29 09:15:02;;;;;;;4.80;2.47;;;9.00;99.90;;;;;;5091455;28;20675;-76
2022/12/29 09:17:43;;;;;;;3.10;2.40;;;9.00;99.90;;;;;;5093037;28;20250;-76
2022/12/29 09:20:10;;;;;;;5.10;2.40;;;9.10;99.90;;;;;;5093986;28;20655;-76
2022/12/29 09:22:37;;;;;;;5.47;2.57;;;9.10;99.90;;;;;;5094531;28;20253;-77
2022/12/29 09:25:04;;;;;;;5.30;2.73;;;9.10;99.90;;;;;;5095000;28;20594;-77
2022/12/29 09:27:30;;;;;;;5.03;2.50;;;9.00;99.90;;;;;;5094293;28;20200;-77
2022/12/29 09:29:57;;;;;;;2.57;2.07;;;9.00;99.90;;;;;;5093917;28;20203;-80
2022/12/29 09:32:24;;;;;;;5.37;2.57;;;9.10;99.90;;;;;;5093993;28;20226;-78
2022/12/29 09:34:52;;;;;;;4.27;2.23;;;9.10;99.90;;;;;;5093755;28;20189;-78
2022/12/29 09:37:18;;;;;;;4.20;2.40;;;9.10;99.90;;;;;;5093998;28;20281;-78
2022/12/29 09:39:45;;;;;;;5.70;2.30;;;9.20;99.90;;;;;;5093165;28;20647;-77
2022/12/29 09:42:17;;;;;;;4.27;2.30;;;9.20;99.90;;;;;;5094030;28;20269;-77
2022/12/29 09:44:53;;;;;;;3.00;2.47;;;9.20;99.90;;;;;;5093844;28;20277;-78
2022/12/29 09:47:21;;;;;;;4.63;2.50;;;9.20;99.90;;;;;;5093165;28;20565;-78
2022/12/29 09:49:50;;;;;;;6.30;2.40;;;9.20;99.90;;;;;;5094235;28;20250;-77
2022/12/29 09:52:25;;;;;;;3.80;2.73;;;9.20;99.90;;;;;;5093704;28;20621;-77
2022/12/29 09:54:56;;;;;;;3.40;2.30;;;9.30;99.90;;;;;;5110702;28;20195;-78
2022/12/29 09:57:26;;;;;;;3.60;2.33;;;9.30;99.90;;;;;;5114313;28;20223;-78
2022/12/29 09:59:57;;;;;;;4.87;2.23;;;9.30;99.90;;;;;;5113871;28;20191;-77
2022/12/29 10:02:35;;;;;;;3.33;2.30;;;9.40;99.90;;;;;;5114158;28;20225;-77
2022/12/29 10:05:01;;;;;;;4.07;2.63;;;9.40;99.90;;;;;;5114073;28;20265;-77
2022/12/29 10:07:39;;;;;;;3.73;2.10;;;9.40;99.90;;;;;;5113607;28;20547;-77
2022/12/29 10:10:26;;;;;;;2.83;2.13;;;9.50;99.90;;;;;;5114841;28;20195;-79
2022/12/29 10:13:01;;;;;;;6.23;2.60;;;9.50;99.90;;;;;;5114761;28;20200;-78
2022/12/29 10:15:41;;;;;;;3.67;2.07;;;9.50;99.90;;;;;;5114006;28;20707;-78
2022/12/29 10:18:23;;;;;;;4.90;2.50;;;9.60;99.90;;;;;;5113683;28;20196;-79
2022/12/29 10:20:55;;;;;;;3.60;2.53;;;9.70;99.90;;;;;;5113596;28;20195;-78
2022/12/29 10:23:29;;;;;;;8.67;2.50;;;9.70;99.90;;;;;;5113528;28;20245;-79
2022/12/29 10:25:57;;;;;;;3.53;2.50;;;9.70;99.90;;;;;;5113691;28;20200;-78
2022/12/29 10:28:30;;;;;;;2.93;2.20;;;9.80;99.90;;;;;;5113808;28;20615;-79
2022/12/29 10:30:59;;;;;;;2.90;2.00;;;9.90;99.90;;;;;;5113452;28;20624;-79
2022/12/29 10:33:35;;;;;;;4.43;2.30;;;9.90;99.90;;;;;;5113312;28;20202;-80
2022/12/29 10:36:11;;;;;;;2.40;2.20;;;9.90;99.90;;;;;;5115743;28;20219;-78
2022/12/29 10:38:44;;;;;;;4.13;2.20;;;9.90;99.90;;;;;;5118078;28;20248;-78
2022/12/29 10:41:16;;;;;;;2.60;2.13;;;10.00;99.90;;;;;;5113197;28;20196;-81
2022/12/29 10:43:47;;;;;;;5.47;2.67;;;10.00;99.90;;;;;;5113250;28;20380;-77
2022/12/29 10:46:16;;;;;;;3.27;2.20;;;10.00;99.90;;;;;;5113052;28;20269;-80
2022/12/29 10:48:45;;;;;;;3.73;2.67;;;10.10;99.90;;;;;;5113295;28;20199;-77
2022/12/29 10:51:16;;;;;;;3.13;2.40;;;10.00;99.90;;;;;;5113541;28;20657;-76
2022/12/29 10:53:47;;;;;;;4.77;2.57;;;10.10;99.90;;;;;;5113457;28;20659;-79
2022/12/29 10:56:22;;;;;;;3.37;2.50;;;10.10;99.90;;;;;;5113573;28;20292;-78
2022/12/29 10:58:50;;;;;;;5.03;2.73;;;10.20;99.90;;;;;;5113046;28;20244;-76
2022/12/29 11:01:20;;;;;;;4.10;2.30;;;10.20;99.90;;;;;;5113359;28;20199;-78
2022/12/29 11:03:55;;;;;;;3.57;2.27;;;10.20;99.90;;;;;;5114780;28;20231;-78
2022/12/29 11:06:26;;;;;;;4.73;2.80;;;10.20;99.90;;;;;;5114450;28;20195;-77
2022/12/29 11:08:58;;;;;;;5.03;2.80;;;10.30;99.90;;;;;;5113076;28;20199;-78
2022/12/29 11:11:27;;;;;;;3.83;2.47;;;10.20;99.90;;;;;;5113051;28;20562;-77
2022/12/29 11:14:00;;;;;;;4.73;2.70;;;10.10;99.90;;;;;;5112921;28;20195;-78
2022/12/29 11:16:31;;;;;;;5.33;2.67;;;10.00;99.90;;;;;;5112966;28;20302;-78
2022/12/29 11:18:58;;;;;;;4.23;3.20;;;9.90;99.90;;;;;;5113540;28;20199;-78
2022/12/29 11:21:29;;;;;;;4.60;3.00;;;9.90;99.90;;;;;;5113171;28;20196;-77
2022/12/29 11:24:02;;;;;;;5.00;2.80;;;10.10;99.90;;;;;;5112919;28;20651;-78
2022/12/29 11:26:29;;;;;;;5.03;3.10;;;10.60;99.90;;;;;;5113965;28;20199;-76
2022/12/29 11:29:23;;;;;;;4.10;2.67;;;11.40;99.90;;;;;;5113276;28;20245;-76
2022/12/29 11:31:52;;;;;;;6.70;3.27;;;12.50;99.90;;;;;;5112988;28;20253;-76
2022/12/29 11:34:21;;;;;;;6.33;2.73;;;11.80;99.90;;;;;;5112919;28;20196;-76
2022/12/29 11:36:49;;;;;;;2.87;2.60;;;11.30;99.90;;;;;;5112745;28;20224;-77
2022/12/29 11:39:32;;;;;;;5.77;4.20;;;11.00;99.90;;;;;;5112849;28;20196;-79
2022/12/29 11:41:59;;;;;;;6.60;2.93;;;11.00;99.90;;;;;;5112724;28;20225;-76
2022/12/29 11:44:27;;;;;;;4.77;2.90;;;11.10;99.90;;;;;;5113190;28;20249;-77
2022/12/29 11:46:54;;;;;;;3.90;2.73;;;12.40;99.90;;;;;;5112761;28;20296;-77
2022/12/29 11:49:24;;;;;;;3.20;2.27;;;11.80;99.90;;;;;;5112674;28;20567;-76
2022/12/29 11:51:54;;;;;;;5.07;3.23;;;11.40;99.90;;;;;;5112781;28;20249;-77
2022/12/29 11:54:25;;;;;;;3.37;2.70;;;11.30;99.90;;;;;;5112813;28;20203;-77
2022/12/29 11:56:54;;;;;;;5.17;2.63;;;11.20;99.90;;;;;;5112768;28;20224;-76
2022/12/29 11:59:41;;;;;;;4.97;2.63;;;11.10;99.90;;;;;;5114079;28;20245;-77
2022/12/29 12:02:42;;;;;;;9.17;4.30;;;11.10;99.90;;;;;;5115765;28;20195;-78
2022/12/29 12:05:21;;;;;;;4.17;2.53;;;11.00;99.90;;;;;;5059994;28;20847;-77
2022/12/29 12:07:52;;;;;;;6.87;3.03;;;11.00;99.90;;;;;;5114382;28;20204;-77
2022/12/29 12:10:23;;;;;;;6.53;3.50;;;11.10;99.90;;;;;;5119954;28;20192;-86
2022/12/29 12:12:58;;;;;;;7.33;3.60;;;11.30;99.90;;;;;;5122783;28;20256;-83
2022/12/29 12:15:30;;;;;;;3.67;2.50;;;11.10;99.90;;;;;;5116407;28;20202;-85
2022/12/29 12:18:03;;;;;;;4.80;2.80;;;11.30;99.90;;;;;;5116365;28;20227;-84
2022/12/29 12:20:42;;;;;;;5.10;2.67;;;11.40;99.90;;;;;;5117304;28;20196;-91
2022/12/29 12:23:23;;;;;;;4.03;2.60;;;11.40;99.90;;;;;;5116521;28;20236;-85
2022/12/29 12:25:58;;;;;;;4.43;2.80;;;11.30;99.90;;;;;;5115838;28;20200;-76
2022/12/29 12:28:35;;;;;;;3.50;2.63;;;11.10;99.90;;;;;;5115861;28;20203;-76
2022/12/29 12:31:04;;;;;;;3.60;2.73;;;10.90;99.90;;;;;;5115828;28;20264;-75
2022/12/29 12:33:36;;;;;;;6.03;3.10;;;10.90;99.90;;;;;;5115646;28;20192;-75
2022/12/29 12:36:18;;;;;;;13.47;5.03;;;10.90;99.90;;;;;;5115417;28;20601;-75
2022/12/29 12:38:54;;;;;;;25.97;11.27;;;10.90;99.90;;;;;;5115803;28;20271;-76
2022/12/29 12:41:30;;;;;;;7.63;4.17;;;10.90;99.90;;;;;;5115688;28;20264;-75
2022/12/29 12:44:04;;;;;;;4.67;2.67;;;11.00;99.90;;;;;;5115499;28;20199;-77
2022/12/29 12:46:52;;;;;;;4.23;2.37;;;11.20;99.90;;;;;;5115176;28;20701;-76
2022/12/29 12:49:52;;;;;;;4.70;3.10;;;11.40;99.90;;;;;;5115564;28;20203;-77
2022/12/29 12:52:30;;;;;;;6.73;4.00;;;11.50;99.90;;;;;;5090002;28;20195;-76
2022/12/29 12:55:11;;;;;;;5.67;2.70;;;11.50;99.90;;;;;;5115303;28;20227;-76
2022/12/29 12:57:50;;;;;;;4.40;3.07;;;11.50;99.90;;;;;;5115387;28;20339;-77
2022/12/29 13:00:19;;;;;;;7.10;3.30;;;11.50;99.90;;;;;;5115289;28;20597;-75
2022/12/29 13:03:03;;;;;;;5.40;3.43;;;11.60;99.90;;;;;;5115091;28;20252;-75
2022/12/29 13:05:43;;;;;;;3.47;2.70;;;11.80;99.90;;;;;;5115119;28;20195;-75
2022/12/29 13:08:35;;;;;;;6.30;3.90;;;11.80;99.90;;;;;;5115274;28;20253;-75
2022/12/29 13:11:11;;;;;;;3.20;2.57;;;12.00;99.90;;;;;;5115159;28;20245;-75
2022/12/29 13:14:06;;;;;;;4.97;2.90;;;11.80;99.90;;;;;;5114859;28;20248;-75
2022/12/29 13:16:42;;;;;;;3.10;2.60;;;11.60;99.90;;;;;;5114802;28;20702;-75
2022/12/29 13:19:19;;;;;;;4.70;2.93;;;11.60;99.90;;;;;;5121223;28;20246;-77
2022/12/29 13:21:58;;;;;;;4.43;2.43;;;11.50;99.90;;;;;;5114744;28;20294;-75
2022/12/29 13:24:32;;;;;;;4.53;2.97;;;11.40;99.90;;;;;;5114965;28;20199;-76
2022/12/29 13:27:05;;;;;;;7.67;2.70;;;11.40;99.90;;;;;;5114826;28;20256;-75
2022/12/29 13:29:35;;;;;;;5.60;2.87;;;11.50;99.90;;;;;;5114838;28;20655;-76
2022/12/29 13:32:22;;;;;;;3.07;2.57;;;11.30;99.90;;;;;;5114677;28;20219;-75
2022/12/29 13:34:57;;;;;;;3.27;2.40;;;11.30;99.90;;;;;;5114881;28;20283;-76
2022/12/29 13:37:28;;;;;;;4.77;3.17;;;11.30;99.90;;;;;;5114542;28;20225;-74
2022/12/29 13:39:58;;;;;;;3.57;2.40;;;11.30;99.90;;;;;;5115006;28;20248;-75
2022/12/29 13:42:26;;;;;;;3.60;2.70;;;11.30;99.90;;;;;;5116349;28;20369;-80
2022/12/29 13:44:59;;;;;;;3.23;2.43;;;11.20;99.90;;;;;;5115923;28;20253;-81